Time;durP1;ratioP1;P1;durP2;ratioP2;P2;SDS_P1;SDS_P2;PMS_P1;PMS_P2;Temp;Humidity;BMP_temperature;BMP_pressure;BME280_temperature;BME280_humidity;BME280_pressure;Samples;Min_cycle;Max_cycle;Signal;HPM_P1;HPM_P2
2021/03/13 00:00:23;;;;;;;35.77;17.67;;;;;;;2.17;66.33;98399.94;124268;1105;104277;-70
2021/03/13 00:03:11;;;;;;;39.03;18.33;;;;;;;2.17;66.05;98402.56;124271;1105;104262;-69
2021/03/13 00:05:41;;;;;;;39.33;19.47;;;;;;;2.19;66.30;98399.87;124148;1105;104267;-71
2021/03/13 00:08:12;;;;;;;37.60;17.80;;;;;;;2.20;66.45;98405.03;123915;1105;104185;-69
2021/03/13 00:10:42;;;;;;;37.97;19.53;;;;;;;2.19;66.20;98405.95;124215;1105;104185;-69
2021/03/13 00:13:10;;;;;;;39.03;18.33;;;;;;;2.20;65.60;98399.78;124210;1104;104278;-69
2021/03/13 00:15:40;;;;;;;40.20;20.57;;;;;;;2.20;66.19;98402.41;124154;1105;104165;-68
2021/03/13 00:18:10;;;;;;;43.83;22.10;;;;;;;2.21;66.41;98409.36;125693;1105;104034;-69
2021/03/13 00:20:40;;;;;;;42.73;21.00;;;;;;;2.20;66.28;98402.41;124294;1105;104610;-69
2021/03/13 00:23:12;;;;;;;42.80;21.70;;;;;;;2.15;66.35;98404.41;124341;1105;104212;-69
2021/03/13 00:25:41;;;;;;;45.27;21.80;;;;;;;2.08;66.51;98403.00;124125;1106;104158;-69
2021/03/13 00:28:11;;;;;;;47.20;23.73;;;;;;;2.05;65.98;98403.15;124237;1105;104171;-70
2021/03/13 00:30:46;;;;;;;42.55;20.70;;;;;;;1.98;66.53;98399.15;124233;1105;104325;-70
2021/03/13 00:33:23;;;;;;;45.00;22.53;;;;;;;1.91;66.50;98403.81;124216;1105;104153;-70
2021/03/13 00:35:53;;;;;;;46.00;22.50;;;;;;;1.84;66.52;98400.65;125567;1105;102113;-69
2021/03/13 00:38:25;;;;;;;42.33;20.00;;;;;;;1.81;66.37;98398.17;124280;1105;104717;-71
2021/03/13 00:40:55;;;;;;;44.70;21.57;;;;;;;1.75;66.29;98401.95;124330;1105;104264;-69
2021/03/13 00:43:22;;;;;;;44.13;22.10;;;;;;;1.71;66.47;98395.14;124304;1105;104274;-70
2021/03/13 00:45:53;;;;;;;44.27;20.97;;;;;;;1.62;66.57;98391.20;124318;1105;104262;-71
2021/03/13 00:48:23;;;;;;;41.20;20.17;;;;;;;1.53;66.60;98386.38;124315;1105;104283;-70
2021/03/13 00:50:50;;;;;;;45.47;20.93;;;;;;;1.50;66.61;98386.52;124275;1105;104233;-69
2021/03/13 00:53:17;;;;;;;40.93;19.43;;;;;;;1.49;66.39;98392.67;124371;1105;104169;-70
2021/03/13 00:55:48;;;;;;;38.40;18.63;;;;;;;1.49;66.32;98392.67;124341;1105;104168;-70
2021/03/13 00:58:15;;;;;;;41.80;21.30;;;;;;;1.48;66.38;98399.67;124308;1105;104248;-70
2021/03/13 01:00:49;;;;;;;43.63;20.87;;;;;;;1.49;66.78;98395.30;124314;1105;104176;-69
2021/03/13 01:03:16;;;;;;;43.40;21.53;;;;;;;1.48;66.40;98393.59;124311;1105;104259;-71
2021/03/13 01:05:46;;;;;;;42.70;23.62;;;;;;;1.43;66.63;98388.55;124326;1105;104248;-71
2021/03/13 01:08:13;;;;;;;46.20;22.27;;;;;;;1.40;66.22;98393.09;124299;1105;104214;-70
2021/03/13 01:10:52;;;;;;;40.00;19.90;;;;;;;1.39;67.08;98384.40;124284;1104;104257;-72
2021/03/13 01:13:23;;;;;;;38.67;18.73;;;;;;;1.37;66.69;98387.99;124335;1106;104184;-71
2021/03/13 01:15:50;;;;;;;45.23;21.57;;;;;;;1.32;66.37;98386.44;124319;1105;104175;-70
2021/03/13 01:18:21;;;;;;;42.27;19.43;;;;;;;1.29;66.81;98383.95;124287;1105;104191;-70
2021/03/13 01:20:52;;;;;;;38.60;18.77;;;;;;;1.29;67.12;98375.25;124312;1105;104337;-69
2021/03/13 01:23:19;;;;;;;41.53;20.27;;;;;;;1.28;66.56;98366.53;124269;1105;104249;-70
2021/03/13 01:25:46;;;;;;;39.53;18.55;;;;;;;1.27;66.79;98377.09;124306;1105;104179;-69
2021/03/13 01:28:13;;;;;;;41.47;18.30;;;;;;;1.27;67.19;98371.86;124269;1105;104239;-70
2021/03/13 01:31:04;;;;;;;41.53;19.30;;;;;;;1.27;67.05;98369.23;124321;1105;104185;-70
2021/03/13 01:33:31;;;;;;;39.47;17.07;;;;;;;1.24;66.82;98374.61;124379;1105;104701;-70
2021/03/13 01:36:02;;;;;;;40.17;18.90;;;;;;;1.25;66.88;98366.66;124279;1105;104181;-69
2021/03/13 01:38:28;;;;;;;39.03;20.07;;;;;;;1.27;67.03;98359.59;124340;1105;104166;-70
2021/03/13 01:40:59;;;;;;;37.70;17.77;;;;;;;1.30;67.25;98363.86;124252;1105;104217;-70
2021/03/13 01:43:26;;;;;;;35.65;16.70;;;;;;;1.30;67.29;98359.45;124304;1105;104254;-69
2021/03/13 01:45:56;;;;;;;40.10;18.53;;;;;;;1.31;67.08;98350.67;124296;1105;104305;-69
2021/03/13 01:48:41;;;;;;;40.20;18.77;;;;;;;1.33;67.14;98345.38;124231;1105;104258;-70
2021/03/13 01:51:12;;;;;;;40.33;18.53;;;;;;;1.35;67.09;98333.05;124317;1105;104246;-69
2021/03/13 01:53:39;;;;;;;38.90;18.43;;;;;;;1.40;67.43;98338.93;124334;1105;104712;-69
2021/03/13 01:56:09;;;;;;;37.37;17.20;;;;;;;1.43;67.30;98338.75;124297;1105;104329;-70
2021/03/13 01:58:36;;;;;;;38.63;20.07;;;;;;;1.45;67.12;98339.53;124301;1105;104294;-70
2021/03/13 02:01:22;;;;;;;39.80;19.03;;;;;;;1.48;67.54;98334.16;124165;1105;104188;-69
2021/03/13 02:03:50;;;;;;;33.90;14.80;;;;;;;1.52;67.52;98331.38;124095;1105;104188;-68
2021/03/13 02:06:17;;;;;;;37.78;18.15;;;;;;;1.55;67.52;98331.24;126177;1105;101863;-70
2021/03/13 02:08:49;;;;;;;37.67;17.67;;;;;;;1.57;67.31;98329.40;125581;1105;101723;-70
2021/03/13 02:11:31;;;;;;;40.53;18.73;;;;;;;1.58;67.08;98326.72;124136;1105;104204;-70
2021/03/13 02:14:30;;;;;;;42.53;20.60;;;;;;;1.60;67.00;98327.50;126214;1105;102115;-68
2021/03/13 02:17:13;;;;;;;39.60;19.80;;;;;;;1.61;66.98;98321.33;124267;1105;104318;-70
2021/03/13 02:20:32;;;;;;;38.73;19.23;;;;;;;1.63;67.04;98322.08;124282;1105;104361;-69
2021/03/13 02:23:04;;;;;;;38.00;18.47;;;;;;;1.59;66.78;98317.94;124192;1105;104261;-70
2021/03/13 02:26:04;;;;;;;40.80;20.27;;;;;;;1.54;67.12;98313.81;124349;1105;104261;-72
2021/03/13 02:28:53;;;;;;;44.37;21.90;;;;;;;1.45;66.99;98315.95;124310;1105;104306;-70
2021/03/13 02:31:28;;;;;;;42.00;20.67;;;;;;;1.36;67.34;98303.30;124250;1105;104197;-71
2021/03/13 02:34:05;;;;;;;45.43;22.53;;;;;;;1.28;67.29;98302.81;124255;1105;104239;-70
2021/03/13 02:36:35;;;;;;;40.77;20.27;;;;;;;1.25;67.37;98305.57;124562;1105;104286;-68
2021/03/13 02:39:08;;;;;;;44.27;22.90;;;;;;;1.22;67.82;98313.58;124288;1105;104294;-70
2021/03/13 02:41:59;;;;;;;37.97;17.93;;;;;;;1.20;67.42;98311.04;124249;1105;104153;-70
2021/03/13 02:44:34;;;;;;;43.27;21.50;;;;;;;1.17;67.36;98308.56;124310;1105;104245;-70
2021/03/13 02:47:07;;;;;;;42.00;21.90;;;;;;;1.17;68.01;98314.63;124274;1105;104398;-69
2021/03/13 02:49:38;;;;;;;41.05;20.70;;;;;;;1.14;67.90;98314.77;124295;1105;104261;-70
2021/03/13 02:52:11;;;;;;;45.33;22.60;;;;;;;1.12;67.56;98313.99;124280;1105;104261;-72
2021/03/13 02:54:45;;;;;;;41.50;20.33;;;;;;;1.12;67.98;98319.23;124253;1105;104242;-71
2021/03/13 02:57:18;;;;;;;38.47;19.83;;;;;;;1.10;67.69;98312.38;124322;1105;104149;-69
2021/03/13 02:59:48;;;;;;;39.87;19.27;;;;;;;1.08;67.72;98315.05;124314;1105;104210;-70
2021/03/13 03:02:20;;;;;;;43.93;21.77;;;;;;;1.08;67.50;98324.70;124284;1105;104332;-69
2021/03/13 03:04:53;;;;;;;43.13;21.30;;;;;;;1.09;67.76;98318.53;124313;1105;104334;-69
2021/03/13 03:07:27;;;;;;;33.43;16.67;;;;;;;1.07;67.63;98317.76;124296;1105;104245;-70
2021/03/13 03:09:55;;;;;;;40.90;19.07;;;;;;;1.07;67.92;98315.14;124286;1105;104227;-69
2021/03/13 03:12:27;;;;;;;43.07;21.07;;;;;;;1.04;67.78;98309.12;124337;1105;104261;-69
2021/03/13 03:15:00;;;;;;;41.33;19.40;;;;;;;1.05;68.00;98315.19;124303;1105;104185;-70
2021/03/13 03:17:32;;;;;;;41.80;17.33;;;;;;;1.04;67.65;98313.48;124347;1105;104181;-70
2021/03/13 03:20:05;;;;;;;31.95;15.00;;;;;;;1.03;68.06;98312.66;124319;1105;104224;-68
2021/03/13 03:22:37;;;;;;;41.53;19.63;;;;;;;1.02;67.79;98316.20;124330;1105;104258;-68
2021/03/13 03:25:08;;;;;;;39.93;19.23;;;;;;;1.02;68.44;98308.34;124180;1105;104332;-69
2021/03/13 03:27:52;;;;;;;38.67;18.57;;;;;;;1.03;68.49;98306.55;124253;1105;104224;-69
2021/03/13 03:30:29;;;;;;;40.73;20.10;;;;;;;1.03;68.32;98311.80;124140;1105;104188;-69
2021/03/13 03:33:01;;;;;;;40.97;20.13;;;;;;;1.03;68.11;98314.41;123877;1105;104265;-69
2021/03/13 03:35:32;;;;;;;38.58;19.70;;;;;;;1.06;68.58;98316.05;124241;1105;104165;-69
2021/03/13 03:38:04;;;;;;;36.93;17.17;;;;;;;1.05;68.14;98325.67;124951;1104;104236;-69
2021/03/13 03:40:35;;;;;;;38.90;18.47;;;;;;;1.04;67.87;98319.59;124368;1105;104351;-69
2021/03/13 03:43:32;;;;;;;39.97;20.87;;;;;;;1.06;68.36;98322.13;124303;1105;104227;-69
2021/03/13 03:46:04;;;;;;;36.77;17.27;;;;;;;1.08;68.01;98317.67;124307;1105;104241;-70
2021/03/13 03:48:35;;;;;;;36.57;17.67;;;;;;;1.10;68.68;98323.69;124286;1105;104258;-71
2021/03/13 03:51:13;;;;;;;40.07;18.83;;;;;;;1.11;68.35;98322.77;124279;1105;104166;-70
2021/03/13 03:53:47;;;;;;;37.90;17.17;;;;;;;1.12;68.14;98321.85;124291;1105;104600;-70
2021/03/13 03:56:17;;;;;;;38.47;18.80;;;;;;;1.11;68.36;98324.55;124233;1105;104207;-70
2021/03/13 03:58:46;;;;;;;36.77;18.03;;;;;;;1.10;68.38;98317.62;124189;1105;104249;-71
2021/03/13 04:01:16;;;;;;;41.93;20.23;;;;;;;1.07;68.15;98312.52;124285;1105;104176;-70
2021/03/13 04:03:50;;;;;;;36.65;17.85;;;;;;;1.09;68.57;98314.13;124503;1105;104240;-71
2021/03/13 04:06:23;;;;;;;41.80;19.83;;;;;;;1.08;68.47;98312.44;124305;1105;104235;-70
2021/03/13 04:08:57;;;;;;;37.33;17.93;;;;;;;1.06;68.34;98302.96;124280;1105;104303;-69
2021/03/13 04:11:29;;;;;;;39.47;18.60;;;;;;;1.10;68.33;98307.14;124260;1105;104210;-70
2021/03/13 04:14:01;;;;;;;40.43;20.07;;;;;;;1.10;68.39;98304.52;124318;1105;104156;-70
2021/03/13 04:16:33;;;;;;;41.30;19.40;;;;;;;1.08;68.23;98309.81;124238;1105;104181;-70
2021/03/13 04:19:04;;;;;;;39.07;19.47;;;;;;;1.10;68.55;98313.22;124423;1105;104178;-70
2021/03/13 04:21:36;;;;;;;38.17;19.37;;;;;;;1.10;68.12;98302.73;124310;1105;104284;-70
2021/03/13 04:24:08;;;;;;;40.23;17.83;;;;;;;1.10;68.58;98299.28;124237;1105;104188;-71
2021/03/13 04:26:41;;;;;;;39.33;19.03;;;;;;;1.09;68.42;98302.82;124276;1105;104409;-70
2021/03/13 04:29:12;;;;;;;41.57;19.83;;;;;;;1.06;68.81;98295.11;124321;1105;104220;-70
2021/03/13 04:31:43;;;;;;;41.13;20.73;;;;;;;1.03;68.62;98293.45;124328;1105;104207;-70
2021/03/13 04:34:15;;;;;;;35.67;16.23;;;;;;;1.03;68.75;98291.70;124337;1105;104280;-69
2021/03/13 04:36:48;;;;;;;37.37;18.47;;;;;;;0.97;68.33;98284.13;124267;1105;104216;-69
2021/03/13 04:39:20;;;;;;;40.80;19.07;;;;;;;0.94;68.68;98292.13;124306;1105;104185;-70
2021/03/13 04:41:52;;;;;;;39.50;18.30;;;;;;;0.91;68.72;98279.17;124306;1105;104226;-70
2021/03/13 04:44:19;;;;;;;40.67;20.07;;;;;;;0.89;68.75;98283.63;124312;1105;104195;-69
2021/03/13 04:46:52;;;;;;;38.73;19.83;;;;;;;0.88;69.12;98282.79;124277;1105;104239;-70
2021/03/13 04:49:24;;;;;;;39.45;18.10;;;;;;;0.86;68.75;98273.28;124273;1105;104158;-69
2021/03/13 04:51:59;;;;;;;37.00;16.47;;;;;;;0.87;69.03;98270.62;124260;1105;104249;-68
2021/03/13 04:54:29;;;;;;;41.93;19.53;;;;;;;0.85;68.73;98266.35;124277;1105;104753;-70
2021/03/13 04:56:56;;;;;;;41.07;19.87;;;;;;;0.83;69.05;98265.57;124281;1105;104261;-70
2021/03/13 04:59:23;;;;;;;35.90;17.10;;;;;;;0.84;68.96;98259.41;124300;1105;104338;-69
2021/03/13 05:01:50;;;;;;;41.20;19.97;;;;;;;0.85;69.00;98259.36;124272;1105;104224;-69
2021/03/13 05:04:20;;;;;;;41.00;18.65;;;;;;;0.88;69.16;98255.73;124262;1105;104293;-70
2021/03/13 05:06:47;;;;;;;39.50;18.37;;;;;;;0.89;68.84;98245.21;124314;1105;104165;-70
2021/03/13 05:09:14;;;;;;;44.73;21.20;;;;;;;0.93;68.79;98247.69;124297;1105;104184;-69
2021/03/13 05:11:41;;;;;;;38.88;18.17;;;;;;;0.95;68.96;98249.30;124050;1105;104731;-69
2021/03/13 05:14:11;;;;;;;37.63;17.47;;;;;;;0.97;69.10;98252.70;124257;1105;104246;-69
2021/03/13 05:16:38;;;;;;;37.07;17.53;;;;;;;0.98;69.35;98240.47;124071;1106;104581;-69
2021/03/13 05:19:05;;;;;;;39.67;18.67;;;;;;;0.98;68.93;98236.06;124284;1105;104222;-70
2021/03/13 05:21:36;;;;;;;43.23;18.83;;;;;;;1.01;69.37;98249.02;124290;1105;104185;-69
2021/03/13 05:24:08;;;;;;;41.23;19.73;;;;;;;1.03;69.09;98246.31;124275;1105;104335;-69
2021/03/13 05:26:38;;;;;;;47.75;20.80;;;;;;;1.06;69.41;98240.10;124229;1105;104169;-69
2021/03/13 05:29:05;;;;;;;37.60;18.53;;;;;;;1.08;69.87;98241.72;124275;1105;104265;-70
2021/03/13 05:31:32;;;;;;;40.52;19.87;;;;;;;1.11;69.56;98243.36;124033;1105;104728;-71
2021/03/13 05:34:07;;;;;;;44.33;18.73;;;;;;;1.13;69.80;98234.48;124284;1105;104264;-69
2021/03/13 05:36:34;;;;;;;41.63;19.13;;;;;;;1.14;69.55;98238.81;124238;1105;104412;-69
2021/03/13 05:39:05;;;;;;;43.58;19.20;;;;;;;1.17;69.67;98224.73;123947;1105;104252;-69
2021/03/13 05:41:37;;;;;;;42.63;20.97;;;;;;;1.18;69.40;98229.05;124276;1105;104258;-69
2021/03/13 05:44:09;;;;;;;39.83;18.60;;;;;;;1.20;69.60;98235.06;123985;1105;105082;-70
2021/03/13 05:46:40;;;;;;;45.43;21.40;;;;;;;1.21;69.40;98228.91;124351;1105;104238;-70
2021/03/13 05:49:11;;;;;;;39.93;19.77;;;;;;;1.25;69.53;98243.53;124295;1105;104228;-70
2021/03/13 05:51:46;;;;;;;42.47;20.13;;;;;;;1.28;69.44;98243.38;123981;1105;104220;-70
2021/03/13 05:54:18;;;;;;;42.70;21.17;;;;;;;1.32;69.28;98247.55;123988;1109;104702;-70
2021/03/13 05:56:46;;;;;;;42.63;20.63;;;;;;;1.36;69.57;98253.52;124202;1105;104173;-70
2021/03/13 05:59:13;;;;;;;43.30;20.60;;;;;;;1.38;69.56;98251.67;124163;1105;104251;-69
2021/03/13 06:01:46;;;;;;;39.13;18.27;;;;;;;1.39;69.98;98248.13;124301;1105;104319;-71
2021/03/13 06:04:26;;;;;;;42.37;19.63;;;;;;;1.43;70.02;98259.30;124187;1105;104156;-70
2021/03/13 06:06:58;;;;;;;40.73;19.77;;;;;;;1.45;69.85;98247.80;124282;1105;104162;-69
2021/03/13 06:09:29;;;;;;;42.05;20.35;;;;;;;1.48;69.82;98242.41;124223;1106;104191;-68
2021/03/13 06:11:56;;;;;;;37.80;17.63;;;;;;;1.52;70.04;98232.66;124354;1105;104256;-69
2021/03/13 06:14:23;;;;;;;38.37;18.27;;;;;;;1.57;70.18;98230.66;124337;1105;104647;-70
2021/03/13 06:16:52;;;;;;;41.77;20.27;;;;;;;1.61;70.04;98226.95;124252;1105;104184;-69
2021/03/13 06:19:23;;;;;;;37.17;17.33;;;;;;;1.67;69.88;98233.66;125566;1105;104162;-69
2021/03/13 06:21:50;;;;;;;40.90;20.10;;;;;;;1.73;70.01;98243.84;124248;1105;104313;-69
2021/03/13 06:24:32;;;;;;;41.63;19.50;;;;;;;1.80;70.07;98243.55;124208;1105;104182;-70
2021/03/13 06:27:03;;;;;;;40.20;17.20;;;;;;;1.88;69.85;98233.49;124283;1105;104326;-69
2021/03/13 06:29:31;;;;;;;40.83;19.80;;;;;;;1.99;70.29;98239.05;124269;1105;104150;-69
2021/03/13 06:32:13;;;;;;;38.73;18.63;;;;;;;2.11;70.27;98241.98;124401;1105;104185;-69
2021/03/13 06:34:49;;;;;;;41.37;17.97;;;;;;;2.24;70.32;98237.81;124257;1105;104242;-71
2021/03/13 06:37:24;;;;;;;42.60;21.50;;;;;;;2.34;69.87;98235.55;124790;1103;104181;-70
2021/03/13 06:39:56;;;;;;;37.33;18.30;;;;;;;2.44;69.90;98234.13;124178;1105;104312;-70
2021/03/13 06:42:29;;;;;;;42.08;18.92;;;;;;;2.54;69.47;98244.98;124132;1105;104865;-70
2021/03/13 06:45:01;;;;;;;38.43;18.67;;;;;;;2.64;70.09;98247.96;124160;1105;104271;-70
2021/03/13 06:47:36;;;;;;;40.53;18.57;;;;;;;2.72;69.56;98247.55;124308;1105;104175;-69
2021/03/13 06:50:14;;;;;;;38.70;18.33;;;;;;;2.78;69.90;98250.70;124259;1105;104624;-70
2021/03/13 06:52:48;;;;;;;41.00;20.80;;;;;;;2.87;70.09;98246.73;124310;1105;104335;-71
2021/03/13 06:55:24;;;;;;;40.80;20.13;;;;;;;2.95;69.54;98247.16;124187;1105;104162;-69
2021/03/13 06:58:04;;;;;;;37.23;16.93;;;;;;;3.05;69.63;98242.24;124313;1105;104206;-70
2021/03/13 07:00:34;;;;;;;38.20;18.90;;;;;;;3.11;70.04;98234.02;124262;1105;104255;-75
2021/03/13 07:03:05;;;;;;;35.33;17.77;;;;;;;3.17;69.96;98231.98;124309;1105;104185;-68
2021/03/13 07:05:33;;;;;;;37.87;17.50;;;;;;;3.24;69.44;98238.61;124222;1105;104332;-69
2021/03/13 07:08:27;;;;;;;38.30;17.63;;;;;;;3.30;69.25;98240.03;124232;1105;104268;-69
2021/03/13 07:11:22;;;;;;;37.50;18.07;;;;;;;3.39;70.23;98235.09;124253;1105;104255;-68
2021/03/13 07:13:53;;;;;;;41.27;19.00;;;;;;;3.53;69.18;98231.67;124300;1105;104216;-68
2021/03/13 07:16:25;;;;;;;36.75;16.95;;;;;;;3.65;69.74;98234.54;124276;1105;104181;-69
2021/03/13 07:18:56;;;;;;;37.10;17.57;;;;;;;3.76;69.61;98247.06;124218;1105;104300;-69
2021/03/13 07:21:24;;;;;;;39.17;18.73;;;;;;;3.87;69.56;98234.97;124214;1106;104444;-69
2021/03/13 07:23:58;;;;;;;39.30;18.17;;;;;;;3.97;69.86;98244.96;124277;1105;104258;-69
2021/03/13 07:26:28;;;;;;;33.00;15.40;;;;;;;4.08;69.67;98249.58;124268;1105;104694;-69
2021/03/13 07:28:59;;;;;;;34.73;17.30;;;;;;;4.09;70.00;98252.14;124296;1105;104284;-70
2021/03/13 07:31:29;;;;;;;31.83;15.97;;;;;;;4.16;69.56;98256.11;124316;1105;104338;-69
2021/03/13 07:34:04;;;;;;;35.30;16.95;;;;;;;4.26;69.85;98261.66;124263;1105;104247;-69
2021/03/13 07:36:36;;;;;;;36.87;17.07;;;;;;;4.37;69.58;98253.11;124297;1105;104293;-71
2021/03/13 07:39:19;;;;;;;34.13;15.80;;;;;;;4.50;69.56;98253.20;124277;1105;104185;-73
2021/03/13 07:42:13;;;;;;;33.73;15.47;;;;;;;4.59;69.12;98241.28;124046;1105;104262;-70
2021/03/13 07:44:41;;;;;;;30.27;14.47;;;;;;;4.73;69.14;98241.26;124278;1105;104382;-70
2021/03/13 07:47:12;;;;;;;37.50;17.30;;;;;;;4.82;69.36;98242.50;124290;1105;104261;-71
2021/03/13 07:49:41;;;;;;;35.07;17.40;;;;;;;4.91;69.09;98246.34;124287;1105;104156;-72
2021/03/13 07:52:11;;;;;;;32.57;14.70;;;;;;;5.04;68.97;98247.27;124306;1105;104285;-72
2021/03/13 07:54:42;;;;;;;31.40;15.00;;;;;;;5.15;69.13;98246.58;124299;1105;104738;-72
2021/03/13 07:57:11;;;;;;;30.97;14.33;;;;;;;5.29;69.37;98239.59;124262;1105;104361;-73
2021/03/13 07:59:50;;;;;;;29.67;14.17;;;;;;;5.42;69.08;98240.47;124238;1105;104219;-72
2021/03/13 08:02:30;;;;;;;32.07;15.27;;;;;;;5.56;69.06;98242.20;124364;1105;104184;-71
2021/03/13 08:05:00;;;;;;;29.33;13.10;;;;;;;5.72;69.15;98249.12;124281;1105;104714;-70
2021/03/13 08:07:29;;;;;;;31.07;14.87;;;;;;;5.85;68.61;98244.73;124302;1105;104313;-71
2021/03/13 08:09:56;;;;;;;29.45;14.20;;;;;;;6.01;68.54;98246.36;124235;1106;104313;-71
2021/03/13 08:12:43;;;;;;;28.57;14.00;;;;;;;6.09;68.57;98234.35;124253;1105;104194;-70
2021/03/13 08:15:35;;;;;;;27.53;12.50;;;;;;;6.20;68.60;98230.97;124286;1105;104744;-72
2021/03/13 08:18:03;;;;;;;26.77;12.93;;;;;;;6.31;67.81;98230.23;124264;1105;104159;-72
2021/03/13 08:20:34;;;;;;;27.80;12.50;;;;;;;6.37;67.94;98228.95;124221;1105;104262;-73
2021/03/13 08:23:12;;;;;;;29.27;12.98;;;;;;;6.46;68.00;98223.04;124481;1105;104172;-69
2021/03/13 08:26:00;;;;;;;24.37;12.13;;;;;;;6.53;68.08;98221.66;124181;1105;104252;-72
2021/03/13 08:28:45;;;;;;;29.60;13.47;;;;;;;6.55;68.28;98216.26;124235;1104;104181;-72
2021/03/13 08:31:24;;;;;;;26.87;12.23;;;;;;;6.73;68.27;98215.93;124223;1105;104261;-72
2021/03/13 08:33:53;;;;;;;25.37;11.70;;;;;;;6.93;68.41;98214.52;124188;1105;104245;-73
2021/03/13 08:36:48;;;;;;;27.27;12.53;;;;;;;7.06;67.64;98207.41;124275;1105;104286;-74
2021/03/13 08:39:26;;;;;;;26.27;11.33;;;;;;;7.03;67.44;98198.83;124062;1105;104219;-75
2021/03/13 08:41:55;;;;;;;29.00;12.27;;;;;;;6.95;67.04;98197.58;124126;1105;104152;-73
2021/03/13 08:44:25;;;;;;;26.83;12.03;;;;;;;6.95;67.34;98200.22;124091;1105;104233;-72
2021/03/13 08:46:56;;;;;;;27.07;11.63;;;;;;;6.99;67.80;98198.22;124195;1105;104166;-72
2021/03/13 08:49:26;;;;;;;28.23;12.50;;;;;;;7.15;68.37;98213.82;124203;1105;104223;-76
2021/03/13 08:52:06;;;;;;;28.83;13.70;;;;;;;7.40;67.73;98197.00;124123;1105;104227;-75
2021/03/13 08:54:38;;;;;;;26.37;11.97;;;;;;;7.62;67.65;98191.92;124083;1105;104252;-68
2021/03/13 08:57:16;;;;;;;24.65;11.20;;;;;;;7.71;68.23;98186.77;124103;1105;104334;-69
2021/03/13 09:00:04;;;;;;;24.13;11.10;;;;;;;7.78;67.42;98189.79;124078;1105;104177;-67
2021/03/13 09:02:39;;;;;;;25.00;12.03;;;;;;;7.81;67.70;98204.62;124103;1105;104309;-68
2021/03/13 09:05:16;;;;;;;26.17;11.37;;;;;;;7.68;66.49;98197.59;124115;1105;104224;-71
2021/03/13 09:07:48;;;;;;;25.30;12.03;;;;;;;7.62;66.80;98199.86;125270;1105;104347;-69
2021/03/13 09:10:16;;;;;;;27.20;13.15;;;;;;;7.56;66.85;98195.84;124098;1105;104232;-71
2021/03/13 09:12:44;;;;;;;27.93;13.00;;;;;;;7.54;67.16;98206.56;123941;1106;104188;-71
2021/03/13 09:15:15;;;;;;;26.07;12.43;;;;;;;7.42;66.33;98199.52;124183;1105;104233;-71
2021/03/13 09:17:43;;;;;;;26.93;12.17;;;;;;;7.33;67.21;98201.05;124352;1105;104242;-72
2021/03/13 09:20:16;;;;;;;25.67;11.83;;;;;;;7.32;67.15;98182.66;124874;1105;104614;-72
2021/03/13 09:22:48;;;;;;;25.53;11.87;;;;;;;7.32;66.54;98193.24;124213;1105;104265;-71
2021/03/13 09:25:21;;;;;;;32.47;12.97;;;;;;;7.33;66.48;98193.11;123936;1105;104457;-69
2021/03/13 09:27:51;;;;;;;28.00;12.40;;;;;;;7.34;67.15;98192.16;125223;1105;104261;-69
2021/03/13 09:30:24;;;;;;;27.43;12.30;;;;;;;7.40;66.79;98204.94;124283;1105;104176;-71
2021/03/13 09:32:53;;;;;;;28.27;13.33;;;;;;;7.44;66.70;98198.47;124237;1105;104284;-69
2021/03/13 09:35:24;;;;;;;26.27;12.27;;;;;;;7.45;66.22;98201.94;125617;1105;102235;-71
2021/03/13 09:37:51;;;;;;;27.63;12.77;;;;;;;7.52;66.17;98208.48;124231;1105;104207;-71
2021/03/13 09:40:21;;;;;;;26.77;12.87;;;;;;;7.62;66.81;98208.63;124264;1105;104203;-71
2021/03/13 09:42:51;;;;;;;27.17;12.43;;;;;;;7.69;66.42;98201.09;124215;1105;104242;-70
2021/03/13 09:45:24;;;;;;;26.70;12.77;;;;;;;7.70;66.44;98203.61;124320;1106;104247;-71
2021/03/13 09:47:58;;;;;;;27.00;12.00;;;;;;;7.74;65.89;98205.08;124283;1105;104346;-71
2021/03/13 09:50:33;;;;;;;25.67;12.53;;;;;;;7.81;66.10;98202.80;125506;1104;104184;-70
2021/03/13 09:53:03;;;;;;;25.10;11.70;;;;;;;7.95;65.90;98203.57;124100;1105;104348;-69
2021/03/13 09:55:32;;;;;;;27.90;13.20;;;;;;;8.13;65.67;98207.48;124246;1105;104165;-67
2021/03/13 09:58:04;;;;;;;26.50;11.77;;;;;;;8.48;65.85;98206.59;124179;1105;104299;-70
2021/03/13 10:00:40;;;;;;;27.20;12.87;;;;;;;8.93;66.27;98200.41;124222;1105;104236;-71
2021/03/13 10:03:15;;;;;;;26.30;12.63;;;;;;;9.35;65.74;98212.14;124203;1105;104181;-70
2021/03/13 10:05:55;;;;;;;24.63;11.77;;;;;;;9.65;65.16;98205.28;124165;1105;104255;-71
2021/03/13 10:08:32;;;;;;;27.27;12.80;;;;;;;9.83;65.38;98202.91;124036;1105;104181;-70
2021/03/13 10:11:02;;;;;;;26.23;12.53;;;;;;;10.05;65.44;98203.77;124208;1105;104178;-70
2021/03/13 10:13:30;;;;;;;26.90;13.23;;;;;;;10.23;64.77;98198.70;124204;1105;104220;-70
2021/03/13 10:15:57;;;;;;;30.20;13.67;;;;;;;10.22;65.07;98200.51;124144;1105;104178;-70
2021/03/13 10:18:28;;;;;;;26.00;12.60;;;;;;;10.42;64.85;98204.15;123859;1106;104418;-70
2021/03/13 10:21:01;;;;;;;28.77;13.33;;;;;;;10.56;65.44;98189.69;124106;1105;104256;-75
2021/03/13 10:23:31;;;;;;;25.52;12.35;;;;;;;10.92;65.66;98191.89;124146;1105;104175;-69
2021/03/13 10:25:59;;;;;;;25.17;12.60;;;;;;;11.10;64.70;98191.25;124146;1105;104316;-71
2021/03/13 10:28:31;;;;;;;25.67;13.10;;;;;;;11.06;64.09;98193.33;124209;1105;104156;-71
2021/03/13 10:31:11;;;;;;;24.93;12.00;;;;;;;11.09;64.20;98181.59;124235;1105;104389;-73
2021/03/13 10:33:41;;;;;;;26.10;13.27;;;;;;;11.13;63.64;98202.45;124265;1105;104229;-72
2021/03/13 10:36:09;;;;;;;24.83;11.97;;;;;;;11.10;64.97;98183.27;124282;1105;104181;-70
2021/03/13 10:38:56;;;;;;;24.50;11.30;;;;;;;11.19;64.22;98179.80;124169;1105;104254;-70
2021/03/13 10:41:24;;;;;;;24.93;12.30;;;;;;;11.06;64.56;98171.22;124125;1105;104175;-72
2021/03/13 10:43:52;;;;;;;25.87;12.20;;;;;;;10.83;63.81;98174.94;124236;1105;104280;-70
2021/03/13 10:46:21;;;;;;;24.70;11.37;;;;;;;10.52;63.60;98179.43;124227;1105;104217;-71
2021/03/13 10:48:54;;;;;;;26.60;12.30;;;;;;;10.27;63.29;98174.38;123933;1105;104233;-71
2021/03/13 10:51:34;;;;;;;25.97;11.75;;;;;;;10.08;63.49;98182.26;124013;1105;104230;-69
2021/03/13 10:54:04;;;;;;;25.23;11.70;;;;;;;9.94;63.37;98176.29;123955;1106;104251;-69
2021/03/13 10:56:43;;;;;;;26.30;12.00;;;;;;;9.92;63.54;98175.58;124572;1105;104252;-69
2021/03/13 10:59:11;;;;;;;25.23;11.93;;;;;;;9.91;63.67;98165.92;124062;1106;104157;-69
2021/03/13 11:01:46;;;;;;;27.57;13.67;;;;;;;9.94;62.69;98167.49;124043;1105;104227;-70
2021/03/13 11:04:13;;;;;;;23.90;11.60;;;;;;;9.92;62.95;98162.30;126185;1105;101870;-70
2021/03/13 11:06:40;;;;;;;25.67;12.53;;;;;;;9.98;62.89;98152.98;126202;1105;101879;-69
2021/03/13 11:09:11;;;;;;;28.67;12.47;;;;;;;10.03;63.23;98163.20;126257;1105;102122;-69
2021/03/13 11:11:39;;;;;;;24.27;12.27;;;;;;;9.99;62.77;98157.30;125236;1105;102198;-69
2021/03/13 11:14:09;;;;;;;27.10;12.73;;;;;;;9.95;62.15;98147.92;124202;1105;104246;-69
2021/03/13 11:16:37;;;;;;;24.63;11.93;;;;;;;9.92;62.83;98148.19;124128;1105;104551;-69
2021/03/13 11:19:06;;;;;;;25.50;11.83;;;;;;;10.04;62.92;98147.12;124104;1106;104274;-68
2021/03/13 11:21:35;;;;;;;31.30;14.50;;;;;;;10.25;63.06;98144.44;123902;1105;104258;-71
2021/03/13 11:24:04;;;;;;;26.60;13.40;;;;;;;10.33;62.20;98140.27;124228;1105;104235;-71
2021/03/13 11:26:32;;;;;;;29.30;14.23;;;;;;;10.24;62.01;98136.61;124292;1105;104249;-69
2021/03/13 11:28:59;;;;;;;27.27;13.43;;;;;;;10.25;62.62;98135.63;124184;1105;104255;-70
2021/03/13 11:31:26;;;;;;;23.45;11.25;;;;;;;10.34;62.31;98121.55;124936;1105;104159;-70
2021/03/13 11:33:55;;;;;;;25.37;10.80;;;;;;;10.41;62.37;98122.70;123900;1105;104265;-68